createdAt,value
2019-05-25T00:01:31.933Z,2.10
2019-05-25T00:03:59.143Z,2.00
2019-05-25T00:06:26.370Z,1.93
2019-05-25T00:08:53.645Z,2.57
2019-05-25T00:11:21.210Z,2.97
2019-05-25T00:13:48.414Z,2.50
2019-05-25T00:16:15.651Z,2.37
2019-05-25T00:18:43.170Z,2.30
2019-05-25T00:21:13.647Z,2.50
2019-05-25T00:23:39.926Z,2.67
2019-05-25T00:26:07.163Z,2.40
2019-05-25T00:28:34.396Z,2.63
2019-05-25T00:31:01.599Z,2.23
2019-05-25T00:33:28.831Z,2.40
2019-05-25T00:35:56.412Z,2.53
2019-05-25T00:38:23.619Z,2.60
2019-05-25T00:40:51.101Z,2.50
2019-05-25T00:43:18.307Z,2.67
2019-05-25T00:45:45.802Z,2.23
2019-05-25T00:48:13.282Z,2.80
2019-05-25T00:50:40.516Z,2.80
2019-05-25T00:53:07.748Z,2.80
2019-05-25T00:55:34.945Z,2.30
2019-05-25T00:58:02.179Z,2.43
2019-05-25T01:00:29.723Z,3.03
2019-05-25T01:02:56.949Z,3.10
2019-05-25T01:05:28.109Z,3.20
2019-05-25T01:07:55.680Z,2.87
2019-05-25T01:10:22.950Z,2.53
2019-05-25T01:12:50.177Z,2.50
2019-05-25T01:15:17.474Z,2.50
2019-05-25T01:17:44.674Z,2.80
2019-05-25T01:20:12.271Z,2.83
2019-05-25T01:22:39.483Z,2.90
2019-05-25T01:25:06.777Z,2.97
2019-05-25T01:27:33.981Z,2.93
2019-05-25T01:30:01.600Z,2.63
2019-05-25T01:32:28.795Z,2.90
2019-05-25T01:34:56.027Z,3.07
2019-05-25T01:37:23.235Z,2.93
2019-05-25T01:39:50.466Z,2.97
2019-05-25T01:42:17.677Z,3.10
2019-05-25T01:44:44.894Z,2.77
2019-05-25T01:47:12.420Z,2.63
2019-05-25T01:49:39.648Z,3.37
2019-05-25T01:52:06.859Z,3.20
2019-05-25T01:54:34.070Z,3.20
2019-05-25T01:57:01.278Z,2.70
2019-05-25T01:59:28.571Z,2.67
2019-05-25T02:01:55.777Z,2.80
2019-05-25T02:04:23.008Z,3.30
2019-05-25T02:06:50.215Z,3.00
2019-05-25T02:09:17.441Z,2.93
2019-05-25T02:11:44.935Z,2.90
2019-05-25T02:14:12.153Z,3.10
2019-05-25T02:16:39.371Z,3.20
2019-05-25T02:19:06.662Z,2.93
2019-05-25T02:21:33.962Z,3.27
2019-05-25T02:24:01.322Z,3.40
2019-05-25T02:26:28.601Z,3.17
2019-05-25T02:28:56.118Z,3.83
2019-05-25T02:31:23.658Z,2.83
2019-05-25T02:33:50.887Z,3.63
2019-05-25T02:36:20.719Z,3.27
2019-05-25T02:38:47.311Z,3.50
2019-05-25T02:41:14.542Z,3.80
2019-05-25T02:43:42.074Z,3.63
2019-05-25T02:46:09.627Z,3.50
2019-05-25T02:48:36.839Z,3.20
2019-05-25T02:51:04.130Z,3.40
2019-05-25T02:53:31.355Z,3.70
2019-05-25T02:55:58.555Z,3.50
2019-05-25T02:58:25.790Z,3.37
2019-05-25T03:00:52.991Z,3.40
2019-05-25T03:03:20.498Z,3.70
2019-05-25T03:05:48.169Z,3.40
2019-05-25T03:08:15.406Z,3.40
2019-05-25T03:10:43.183Z,3.73
2019-05-25T03:13:10.406Z,3.50
2019-05-25T03:15:37.626Z,3.37
2019-05-25T03:18:04.866Z,3.57
2019-05-25T03:20:32.382Z,3.93
2019-05-25T03:22:59.934Z,3.20
2019-05-25T03:25:27.140Z,3.93
2019-05-25T03:27:54.364Z,4.13
2019-05-25T03:30:23.110Z,4.00
2019-05-25T03:32:50.330Z,3.80
2019-05-25T03:35:17.540Z,3.93
2019-05-25T03:37:44.769Z,4.13
2019-05-25T03:40:12.052Z,3.90
2019-05-25T03:42:39.578Z,4.00
2019-05-25T03:45:07.370Z,3.90
2019-05-25T03:47:34.579Z,4.00
2019-05-25T03:50:01.798Z,4.13
2019-05-25T03:52:29.014Z,3.77
2019-05-25T03:54:56.214Z,4.30
2019-05-25T03:57:23.445Z,4.17
2019-05-25T03:59:50.660Z,4.03
2019-05-25T04:02:17.879Z,3.80
2019-05-25T04:04:45.081Z,4.80
2019-05-25T04:07:12.313Z,4.00
2019-05-25T04:09:39.524Z,4.00
2019-05-25T04:12:07.005Z,4.47
2019-05-25T04:14:34.242Z,4.20
2019-05-25T04:17:01.446Z,4.00
2019-05-25T04:19:28.966Z,4.00
2019-05-25T04:21:56.199Z,3.90
2019-05-25T04:24:23.429Z,4.10
2019-05-25T04:26:50.675Z,4.03
2019-05-25T04:29:18.182Z,4.30
2019-05-25T04:31:45.734Z,4.90
2019-05-25T04:34:12.948Z,4.10
2019-05-25T04:36:40.174Z,4.40
2019-05-25T04:39:07.755Z,4.40
2019-05-25T04:41:34.982Z,4.37
2019-05-25T04:44:03.015Z,4.60
2019-05-25T04:46:30.458Z,4.60
2019-05-25T04:48:57.747Z,4.83
2019-05-25T04:51:24.986Z,4.60
2019-05-25T04:53:52.216Z,5.20
2019-05-25T04:56:19.487Z,5.20
2019-05-25T04:58:46.941Z,4.80
2019-05-25T05:01:14.150Z,5.10
2019-05-25T05:03:41.383Z,5.43
2019-05-25T05:06:08.593Z,5.43
2019-05-25T05:08:35.967Z,5.70
2019-05-25T05:11:03.202Z,5.00
2019-05-25T05:13:30.429Z,6.20
2019-05-25T05:15:57.662Z,6.30
2019-05-25T05:18:24.866Z,5.87
2019-05-25T05:20:52.098Z,5.83
2019-05-25T05:23:19.555Z,6.10
2019-05-25T05:25:46.770Z,5.80
2019-05-25T05:28:13.979Z,6.53
2019-05-25T05:30:41.274Z,5.63
2019-05-25T05:33:08.475Z,6.27
2019-05-25T05:35:38.885Z,7.03
2019-05-25T05:38:05.770Z,7.30
2019-05-25T05:40:33.550Z,6.50
2019-05-25T05:43:02.310Z,6.63
2019-05-25T05:45:31.054Z,6.97
2019-05-25T05:47:59.954Z,7.00
2019-05-25T05:50:27.154Z,7.43
2019-05-25T05:52:55.291Z,6.53
2019-05-25T05:55:24.033Z,8.37
2019-05-25T05:57:51.257Z,8.70
2019-05-25T06:00:18.766Z,9.13
2019-05-25T06:02:46.233Z,8.77
2019-05-25T06:05:13.471Z,9.17
2019-05-25T06:07:40.676Z,8.67
2019-05-25T06:10:08.290Z,8.90
2019-05-25T06:12:35.748Z,10.03
2019-05-25T06:15:04.268Z,8.93
2019-05-25T06:17:31.790Z,9.80
2019-05-25T06:19:59.022Z,10.40
2019-05-25T06:22:26.486Z,9.27
2019-05-25T06:24:53.722Z,9.10
2019-05-25T06:27:27.351Z,9.53
2019-05-25T06:29:50.058Z,9.13
2019-05-25T06:32:17.262Z,8.87
2019-05-25T06:34:44.489Z,8.90
2019-05-25T06:37:11.942Z,8.40
2019-05-25T06:39:39.165Z,8.70
2019-05-25T06:42:06.403Z,9.00
2019-05-25T06:44:33.635Z,9.27
2019-05-25T06:47:01.801Z,8.87
2019-05-25T06:49:29.332Z,9.13
2019-05-25T06:51:56.883Z,7.97
2019-05-25T06:54:24.091Z,8.47
2019-05-25T06:56:51.328Z,8.50
2019-05-25T06:59:18.546Z,8.63
2019-05-25T07:01:45.771Z,8.70
2019-05-25T07:04:13.241Z,9.60
2019-05-25T07:06:40.483Z,9.40
2019-05-25T07:09:08.053Z,9.33
2019-05-25T07:11:35.263Z,8.90
2019-05-25T07:14:02.495Z,9.40
2019-05-25T07:16:29.717Z,9.03
2019-05-25T07:18:56.970Z,8.67
2019-05-25T07:21:24.250Z,8.97
2019-05-25T07:23:51.459Z,8.40
2019-05-25T07:26:19.020Z,8.20
2019-05-25T07:28:46.251Z,8.33
2019-05-25T07:31:13.743Z,9.07
2019-05-25T07:33:41.288Z,8.30
2019-05-25T07:36:08.585Z,7.97
2019-05-25T07:38:35.811Z,8.57
2019-05-25T07:41:03.027Z,8.10
2019-05-25T07:43:30.226Z,8.53
2019-05-25T07:45:57.755Z,7.70
2019-05-25T07:48:24.971Z,7.83
2019-05-25T07:50:52.207Z,8.30
2019-05-25T07:53:19.443Z,7.37
2019-05-25T07:55:46.679Z,7.27
2019-05-25T07:58:18.127Z,7.07
2019-05-25T08:00:43.218Z,7.13
2019-05-25T08:03:10.422Z,8.03
2019-05-25T08:05:37.906Z,7.77
2019-05-25T08:08:05.574Z,7.83
2019-05-25T08:10:33.014Z,7.67
2019-05-25T08:13:00.480Z,8.60
2019-05-25T08:15:28.038Z,8.07
2019-05-25T08:17:55.259Z,8.17
2019-05-25T08:20:22.742Z,7.30
2019-05-25T08:22:51.132Z,8.30
2019-05-25T08:25:18.363Z,7.80
2019-05-25T08:27:45.605Z,8.17
2019-05-25T08:30:13.197Z,8.37
2019-05-25T08:32:40.743Z,8.40
2019-05-25T08:35:08.525Z,7.90
2019-05-25T08:37:35.830Z,8.10
2019-05-25T08:40:04.758Z,7.55
2019-05-25T08:42:31.991Z,8.38
2019-05-25T08:44:59.561Z,8.53
2019-05-25T08:47:26.785Z,8.60
2019-05-25T08:49:54.011Z,8.48
2019-05-25T08:52:21.229Z,9.00
2019-05-25T08:54:48.544Z,8.93
2019-05-25T08:57:18.600Z,9.48
2019-05-25T08:59:44.785Z,8.75
2019-05-25T09:02:11.988Z,8.75
2019-05-25T09:04:39.231Z,10.03
2019-05-25T09:07:06.457Z,10.38
2019-05-25T09:09:33.686Z,11.10
2019-05-25T09:12:02.456Z,10.88
2019-05-25T09:14:29.854Z,10.68
2019-05-25T09:16:57.118Z,10.60
2019-05-25T09:19:24.326Z,11.22
2019-05-25T09:22:01.986Z,11.22
2019-05-25T09:24:20.515Z,11.45
2019-05-25T09:26:47.751Z,11.12
2019-05-25T09:29:15.211Z,11.35
2019-05-25T09:31:42.767Z,12.03
2019-05-25T09:34:09.998Z,12.15
2019-05-25T09:36:37.479Z,11.38
2019-05-25T09:39:06.283Z,11.43
2019-05-25T09:41:33.515Z,11.83
2019-05-25T09:44:01.519Z,12.45
2019-05-25T09:46:28.739Z,11.22
2019-05-25T09:48:56.294Z,12.00
2019-05-25T09:51:23.855Z,12.68
2019-05-25T09:53:51.097Z,13.65
2019-05-25T09:56:18.311Z,14.10
2019-05-25T09:58:45.551Z,12.82
2019-05-25T10:01:12.774Z,13.10
2019-05-25T10:03:40.000Z,13.90
2019-05-25T10:06:11.756Z,12.50
2019-05-25T10:08:36.559Z,13.43
2019-05-25T10:11:03.799Z,13.15
2019-05-25T10:13:31.021Z,12.20
2019-05-25T10:15:58.259Z,12.57
2019-05-25T10:18:25.479Z,13.93
2019-05-25T10:20:52.719Z,11.23
2019-05-25T10:23:19.934Z,11.70
2019-05-25T10:25:47.173Z,10.17
2019-05-25T10:28:14.678Z,10.53
2019-05-25T10:30:41.895Z,10.33
2019-05-25T10:33:09.126Z,11.27
2019-05-25T10:35:36.367Z,10.37
2019-05-25T10:38:03.988Z,10.37
2019-05-25T10:40:31.232Z,9.77
2019-05-25T10:42:58.700Z,9.50
2019-05-25T10:45:25.978Z,10.17
2019-05-25T10:47:53.220Z,10.10
2019-05-25T10:50:20.575Z,10.10
2019-05-25T10:52:47.786Z,10.07
2019-05-25T10:55:15.295Z,9.60
2019-05-25T10:57:42.514Z,9.57
2019-05-25T11:00:11.115Z,9.83
2019-05-25T11:02:38.654Z,9.43
2019-05-25T11:05:06.599Z,9.70
2019-05-25T11:07:33.819Z,9.20
2019-05-25T11:10:01.671Z,9.60
2019-05-25T11:12:28.875Z,8.67
2019-05-25T11:14:56.102Z,9.50
2019-05-25T11:17:23.319Z,10.00
2019-05-25T11:19:50.547Z,9.57
2019-05-25T11:22:18.099Z,9.47
2019-05-25T11:24:45.326Z,9.27
2019-05-25T11:27:12.537Z,9.63
2019-05-25T11:29:39.871Z,8.67
2019-05-25T11:32:07.724Z,10.93
2019-05-25T11:34:35.097Z,9.00
2019-05-25T11:37:02.308Z,9.70
2019-05-25T11:39:29.542Z,10.37
2019-05-25T11:41:57.037Z,8.50
2019-05-25T11:44:24.587Z,10.40
2019-05-25T11:46:51.804Z,10.27
2019-05-25T11:49:22.564Z,10.67
2019-05-25T11:51:48.003Z,11.63
2019-05-25T11:54:15.191Z,12.57
2019-05-25T11:56:42.421Z,12.20
2019-05-25T11:59:09.640Z,11.40
2019-05-25T12:01:36.874Z,12.07
2019-05-25T12:04:04.119Z,13.97
2019-05-25T12:06:31.591Z,13.03
2019-05-25T12:08:59.143Z,12.30
2019-05-25T12:11:26.454Z,13.40
2019-05-25T12:13:53.692Z,14.23
2019-05-25T12:16:20.907Z,13.90
2019-05-25T12:18:48.155Z,14.63
2019-05-25T12:21:15.611Z,15.47
2019-05-25T12:23:42.826Z,15.37
2019-05-25T12:26:10.317Z,15.80
2019-05-25T12:28:37.525Z,15.33
2019-05-25T12:31:05.025Z,15.07
2019-05-25T12:33:32.243Z,15.97
2019-05-25T12:35:59.476Z,16.30
2019-05-25T12:38:26.713Z,14.87
2019-05-25T12:40:54.342Z,16.27
2019-05-25T12:43:21.737Z,16.10
2019-05-25T12:45:48.979Z,16.10
2019-05-25T12:48:16.506Z,14.73
2019-05-25T12:50:44.058Z,15.70
2019-05-25T12:53:11.544Z,15.03
2019-05-25T12:55:38.773Z,14.87
2019-05-25T12:58:06.478Z,14.27
2019-05-25T13:00:33.984Z,14.30
2019-05-25T13:03:01.781Z,13.47
2019-05-25T13:05:34.324Z,13.93
2019-05-25T13:07:59.019Z,14.23
2019-05-25T13:10:26.414Z,14.33
2019-05-25T13:12:53.927Z,14.73
2019-05-25T13:15:21.165Z,12.67
2019-05-25T13:17:48.394Z,12.63
2019-05-25T13:20:16.366Z,13.20
2019-05-25T13:22:43.859Z,13.27
2019-05-25T13:25:11.487Z,11.63
2019-05-25T13:27:39.259Z,11.83
2019-05-25T13:30:07.267Z,11.07
2019-05-25T13:32:34.484Z,11.87
2019-05-25T13:35:01.718Z,11.23
2019-05-25T13:37:28.939Z,10.60
2019-05-25T13:39:56.473Z,10.20
2019-05-25T13:42:23.746Z,9.90
2019-05-25T13:44:50.992Z,10.37
2019-05-25T13:47:18.229Z,9.70
2019-05-25T13:49:45.447Z,9.40
2019-05-25T13:52:12.675Z,9.60
2019-05-25T13:54:39.902Z,9.17
2019-05-25T13:57:07.117Z,9.33
2019-05-25T13:59:34.678Z,9.20
2019-05-25T14:02:01.881Z,8.53
2019-05-25T14:04:29.390Z,8.33
2019-05-25T14:06:56.614Z,8.47
2019-05-25T14:09:23.840Z,8.63
2019-05-25T14:11:51.346Z,7.93
2019-05-25T14:14:18.798Z,7.60
2019-05-25T14:16:46.011Z,7.27
2019-05-25T14:19:13.238Z,7.40
2019-05-25T14:21:40.467Z,6.47
2019-05-25T14:24:09.577Z,6.27
2019-05-25T14:26:37.179Z,6.13
2019-05-25T14:29:04.420Z,6.50
2019-05-25T14:31:45.037Z,6.10
2019-05-25T14:34:01.612Z,6.30
2019-05-25T14:36:29.178Z,5.47
2019-05-25T14:38:56.410Z,5.30
2019-05-25T14:41:23.891Z,5.53
2019-05-25T14:43:51.145Z,6.07
2019-05-25T14:46:27.267Z,5.20
2019-05-25T14:48:47.315Z,4.90
2019-05-25T14:51:14.529Z,3.90
2019-05-25T14:53:41.763Z,4.50
2019-05-25T14:56:08.967Z,4.70
2019-05-25T14:58:36.272Z,3.77
2019-05-25T15:01:03.529Z,3.73
2019-05-25T15:03:30.763Z,3.50
2019-05-25T15:05:57.966Z,3.63
2019-05-25T15:08:25.205Z,3.70
2019-05-25T15:10:52.406Z,3.67
2019-05-25T15:13:19.647Z,3.33
2019-05-25T15:15:46.862Z,2.87
2019-05-25T15:18:14.075Z,3.20
2019-05-25T15:20:41.775Z,3.00
2019-05-25T15:23:09.008Z,4.60
2019-05-25T15:25:36.216Z,2.70
2019-05-25T15:28:03.447Z,3.10
2019-05-25T15:30:30.664Z,3.10
2019-05-25T15:32:57.890Z,2.97
2019-05-25T15:35:25.083Z,3.00
2019-05-25T15:37:52.305Z,3.30
2019-05-25T15:40:19.666Z,3.50
2019-05-25T15:42:47.222Z,3.00
2019-05-25T15:45:14.594Z,3.53
2019-05-25T15:47:42.130Z,3.40
2019-05-25T15:50:10.314Z,3.40
2019-05-25T15:52:37.513Z,2.90
2019-05-25T15:55:07.955Z,3.20
2019-05-25T15:57:35.451Z,2.83
2019-05-25T16:00:04.215Z,3.23
2019-05-25T16:02:36.746Z,2.67
2019-05-25T16:05:00.670Z,2.70
2019-05-25T16:07:28.983Z,2.73
2019-05-25T16:09:56.192Z,3.17
2019-05-25T16:12:23.759Z,2.83
2019-05-25T16:14:50.977Z,3.30
2019-05-25T16:17:18.394Z,3.00
2019-05-25T16:19:45.587Z,3.13
2019-05-25T16:22:12.817Z,3.27
2019-05-25T16:24:40.048Z,3.63
2019-05-25T16:27:07.588Z,3.40
2019-05-25T16:29:35.139Z,3.27
2019-05-25T16:32:02.747Z,3.13
2019-05-25T16:34:29.969Z,3.20
2019-05-25T16:36:57.557Z,3.20
2019-05-25T16:39:25.063Z,3.30
2019-05-25T16:41:52.286Z,2.80
2019-05-25T16:44:19.495Z,2.97
2019-05-25T16:46:47.023Z,2.77
2019-05-25T16:49:14.254Z,3.00
2019-05-25T16:51:41.477Z,2.93
2019-05-25T16:54:08.700Z,3.13
2019-05-25T16:56:36.911Z,2.93
2019-05-25T16:59:04.214Z,2.73
2019-05-25T17:01:47.038Z,3.17
2019-05-25T17:04:00.761Z,3.37
2019-05-25T17:06:27.986Z,2.87
2019-05-25T17:08:56.276Z,2.90
2019-05-25T17:11:23.775Z,3.17
2019-05-25T17:13:50.996Z,3.17
2019-05-25T17:16:18.220Z,3.23
2019-05-25T17:18:45.418Z,3.20
2019-05-25T17:21:12.648Z,3.20
2019-05-25T17:23:39.850Z,3.03
2019-05-25T17:26:07.089Z,3.40
2019-05-25T17:28:34.359Z,4.60
2019-05-25T17:31:01.851Z,4.77
2019-05-25T17:33:44.672Z,3.77
2019-05-25T17:35:58.009Z,3.23
2019-05-25T17:38:25.543Z,3.43
2019-05-25T17:40:53.100Z,3.43
2019-05-25T17:43:20.313Z,3.13
2019-05-25T17:45:47.611Z,3.77
2019-05-25T17:48:14.814Z,4.40
2019-05-25T17:50:42.061Z,4.37
2019-05-25T17:53:09.261Z,3.60
2019-05-25T17:55:36.489Z,3.20
2019-05-25T17:58:03.899Z,3.53
2019-05-25T18:00:38.277Z,2.93
2019-05-25T18:03:05.507Z,2.93
2019-05-25T18:05:32.996Z,3.10
2019-05-25T18:08:00.595Z,3.13
2019-05-25T18:10:28.068Z,3.40
2019-05-25T18:12:55.330Z,2.90
2019-05-25T18:15:22.542Z,3.43
2019-05-25T18:17:49.754Z,3.00
2019-05-25T18:20:16.986Z,3.10
2019-05-25T18:22:44.463Z,3.30
2019-05-25T18:25:11.761Z,3.60
2019-05-25T18:27:39.035Z,3.30
2019-05-25T18:30:07.255Z,3.43
2019-05-25T18:32:34.448Z,3.40
2019-05-25T18:35:01.671Z,3.77
2019-05-25T18:37:29.208Z,3.27
2019-05-25T18:39:56.760Z,2.87
2019-05-25T18:42:24.044Z,3.40
2019-05-25T18:44:51.271Z,3.30
2019-05-25T18:47:18.487Z,3.33
2019-05-25T18:49:45.703Z,3.70
2019-05-25T18:52:12.921Z,3.40
2019-05-25T18:54:40.147Z,3.43
2019-05-25T18:57:09.543Z,3.63
2019-05-25T18:59:36.294Z,3.70
2019-05-25T19:02:03.570Z,3.63
2019-05-25T19:04:45.016Z,3.43
2019-05-25T19:06:59.726Z,3.50
2019-05-25T19:09:26.963Z,3.43
2019-05-25T19:11:54.172Z,3.40
2019-05-25T19:14:21.406Z,3.70
2019-05-25T19:16:48.635Z,3.80
2019-05-25T19:19:15.854Z,3.80
2019-05-25T19:21:43.058Z,3.90
2019-05-25T19:24:10.635Z,4.50
2019-05-25T19:26:37.849Z,4.87
2019-05-25T19:29:05.891Z,4.80
2019-05-25T19:31:33.278Z,4.50
2019-05-25T19:34:00.525Z,4.53
2019-05-25T19:36:27.815Z,4.47
2019-05-25T19:38:55.025Z,4.73
2019-05-25T19:41:22.257Z,3.77
2019-05-25T19:43:49.470Z,4.03
2019-05-25T19:46:16.699Z,3.90
2019-05-25T19:48:43.935Z,4.70
2019-05-25T19:51:11.140Z,4.47
2019-05-25T19:53:38.362Z,4.37
2019-05-25T19:56:05.571Z,4.47
2019-05-25T19:58:32.803Z,4.17
2019-05-25T20:01:00.026Z,4.43
2019-05-25T20:03:27.503Z,4.73
2019-05-25T20:05:55.063Z,4.50
2019-05-25T20:08:22.281Z,5.20
2019-05-25T20:10:49.770Z,4.57
2019-05-25T20:13:17.331Z,5.07
2019-05-25T20:15:44.534Z,5.00
2019-05-25T20:18:12.046Z,5.13
2019-05-25T20:20:39.499Z,5.20
2019-05-25T20:23:06.727Z,5.33
2019-05-25T20:25:33.926Z,4.83
2019-05-25T20:28:01.699Z,4.73
2019-05-25T20:30:28.918Z,4.80
2019-05-25T20:32:56.160Z,4.67
2019-05-25T20:35:32.361Z,4.30
2019-05-25T20:37:52.328Z,4.47
2019-05-25T20:40:19.548Z,4.20
2019-05-25T20:42:46.746Z,4.40
2019-05-25T20:45:14.241Z,4.33
2019-05-25T20:47:41.446Z,3.97
2019-05-25T20:50:08.943Z,4.50
2019-05-25T20:52:36.517Z,4.53
2019-05-25T20:55:05.093Z,5.17
2019-05-25T20:57:32.304Z,4.20
2019-05-25T20:59:59.526Z,5.10
2019-05-25T21:02:27.067Z,4.60
2019-05-25T21:04:54.304Z,5.27
2019-05-25T21:07:21.530Z,5.57
2019-05-25T21:09:48.813Z,4.67
2019-05-25T21:12:16.026Z,5.13
2019-05-25T21:14:43.243Z,5.70
2019-05-25T21:17:10.791Z,5.33
2019-05-25T21:19:38.022Z,5.37
2019-05-25T21:22:05.591Z,5.60
2019-05-25T21:24:32.802Z,6.17
2019-05-25T21:27:00.030Z,5.63
2019-05-25T21:29:27.241Z,5.57
2019-05-25T21:31:54.804Z,6.17
2019-05-25T21:34:22.019Z,5.57
2019-05-25T21:36:49.237Z,5.67
2019-05-25T21:39:16.437Z,6.20
2019-05-25T21:41:43.670Z,5.50
2019-05-25T21:44:10.899Z,5.80
2019-05-25T21:46:38.098Z,5.80
2019-05-25T21:49:05.674Z,5.70
2019-05-25T21:51:32.899Z,6.07
2019-05-25T21:54:00.102Z,5.67
2019-05-25T21:56:27.627Z,6.27
2019-05-25T21:58:54.840Z,5.87
2019-05-25T22:01:22.134Z,6.20
2019-05-25T22:03:49.345Z,6.30
2019-05-25T22:06:24.137Z,6.47
2019-05-25T22:08:45.528Z,6.90
2019-05-25T22:11:13.078Z,7.00
2019-05-25T22:13:40.300Z,6.60
2019-05-25T22:16:07.517Z,6.90
2019-05-25T22:18:34.731Z,7.37
2019-05-25T22:21:02.290Z,6.93
2019-05-25T22:23:29.517Z,6.87
2019-05-25T22:25:56.735Z,7.33
2019-05-25T22:28:24.287Z,7.37
2019-05-25T22:30:51.535Z,6.50
2019-05-25T22:33:18.763Z,7.27
2019-05-25T22:35:46.310Z,7.60
2019-05-25T22:38:13.537Z,7.37
2019-05-25T22:40:41.124Z,7.40
2019-05-25T22:43:08.363Z,7.63
2019-05-25T22:45:35.599Z,7.70
2019-05-25T22:48:02.806Z,8.07
2019-05-25T22:50:30.040Z,7.93
2019-05-25T22:52:57.247Z,7.30
2019-05-25T22:55:24.483Z,7.77
2019-05-25T22:57:51.692Z,7.73
2019-05-25T23:00:19.795Z,8.70
2019-05-25T23:02:47.002Z,7.77
2019-05-25T23:05:14.222Z,7.53
2019-05-25T23:07:41.715Z,8.20
2019-05-25T23:10:10.209Z,8.50
2019-05-25T23:12:37.477Z,8.57
2019-05-25T23:15:06.092Z,8.33
2019-05-25T23:17:33.314Z,8.00
2019-05-25T23:20:00.538Z,8.47
2019-05-25T23:22:28.083Z,8.87
2019-05-25T23:24:55.295Z,8.10
2019-05-25T23:27:22.526Z,8.30
2019-05-25T23:29:49.763Z,8.40
2019-05-25T23:32:16.999Z,8.70
2019-05-25T23:34:44.206Z,9.23
2019-05-25T23:37:14.796Z,9.67
2019-05-25T23:39:40.898Z,9.80
2019-05-25T23:42:08.136Z,9.27
2019-05-25T23:44:35.594Z,9.83
2019-05-25T23:47:02.845Z,9.53
2019-05-25T23:49:30.307Z,10.27
2019-05-25T23:51:57.531Z,9.97
2019-05-25T23:54:27.799Z,10.83
2019-05-25T23:56:55.049Z,10.73
2019-05-25T23:59:22.249Z,11.43
